sensor_id;sensor_type;location;lat;lon;timestamp;P1;durP1;ratioP1;P2;durP2;ratioP2
14088;SDS011;7120;52.890;6.040;2023-05-07T00:01:30;1999.90;;;999.90;;
14088;SDS011;7120;52.890;6.040;2023-05-07T00:03:56;1999.90;;;999.90;;
14088;SDS011;7120;52.890;6.040;2023-05-07T00:06:22;1999.90;;;999.90;;
14088;SDS011;7120;52.890;6.040;2023-05-07T00:08:47;1999.90;;;999.90;;
14088;SDS011;7120;52.890;6.040;2023-05-07T00:11:13;1999.90;;;999.90;;
14088;SDS011;7120;52.890;6.040;2023-05-07T00:13:38;1999.90;;;999.90;;
14088;SDS011;7120;52.890;6.040;2023-05-07T00:16:04;1999.90;;;999.90;;
14088;SDS011;7120;52.890;6.040;2023-05-07T00:18:30;1999.90;;;999.90;;
14088;SDS011;7120;52.890;6.040;2023-05-07T00:20:55;1999.90;;;999.90;;
14088;SDS011;7120;52.890;6.040;2023-05-07T00:23:21;1999.90;;;999.90;;
14088;SDS011;7120;52.890;6.040;2023-05-07T00:25:47;1999.90;;;999.90;;
14088;SDS011;7120;52.890;6.040;2023-05-07T00:28:12;1999.90;;;999.90;;
14088;SDS011;7120;52.890;6.040;2023-05-07T00:30:37;1999.90;;;999.90;;
14088;SDS011;7120;52.890;6.040;2023-05-07T00:33:03;1999.90;;;999.90;;
14088;SDS011;7120;52.890;6.040;2023-05-07T00:35:28;1999.90;;;999.90;;
14088;SDS011;7120;52.890;6.040;2023-05-07T00:37:54;1999.90;;;999.90;;
14088;SDS011;7120;52.890;6.040;2023-05-07T00:40:20;1999.90;;;999.90;;
14088;SDS011;7120;52.890;6.040;2023-05-07T00:42:46;1999.90;;;999.90;;
14088;SDS011;7120;52.890;6.040;2023-05-07T00:45:12;1999.90;;;999.90;;
14088;SDS011;7120;52.890;6.040;2023-05-07T00:47:38;1999.90;;;999.90;;
14088;SDS011;7120;52.890;6.040;2023-05-07T00:50:05;1999.90;;;999.90;;
14088;SDS011;7120;52.890;6.040;2023-05-07T00:52:32;1999.90;;;999.90;;
14088;SDS011;7120;52.890;6.040;2023-05-07T00:54:57;1999.90;;;999.90;;
14088;SDS011;7120;52.890;6.040;2023-05-07T00:57:26;1999.90;;;999.90;;
14088;SDS011;7120;52.890;6.040;2023-05-07T00:59:52;1999.90;;;999.90;;
14088;SDS011;7120;52.890;6.040;2023-05-07T01:02:17;1999.90;;;999.90;;
14088;SDS011;7120;52.890;6.040;2023-05-07T01:04:42;1999.90;;;999.90;;
14088;SDS011;7120;52.890;6.040;2023-05-07T01:07:08;1999.90;;;999.90;;
14088;SDS011;7120;52.890;6.040;2023-05-07T01:09:33;1999.90;;;999.90;;
14088;SDS011;7120;52.890;6.040;2023-05-07T01:12:00;1999.90;;;999.90;;
14088;SDS011;7120;52.890;6.040;2023-05-07T01:14:25;1999.90;;;999.90;;
14088;SDS011;7120;52.890;6.040;2023-05-07T01:16:52;1999.90;;;999.90;;
14088;SDS011;7120;52.890;6.040;2023-05-07T01:19:18;1999.90;;;999.90;;
14088;SDS011;7120;52.890;6.040;2023-05-07T01:21:48;1999.90;;;999.90;;
14088;SDS011;7120;52.890;6.040;2023-05-07T01:24:14;1999.90;;;999.90;;
14088;SDS011;7120;52.890;6.040;2023-05-07T01:26:39;1999.90;;;999.90;;
14088;SDS011;7120;52.890;6.040;2023-05-07T01:29:06;1999.90;;;999.90;;
14088;SDS011;7120;52.890;6.040;2023-05-07T01:31:32;1999.90;;;999.90;;
14088;SDS011;7120;52.890;6.040;2023-05-07T01:33:59;1999.90;;;999.90;;
14088;SDS011;7120;52.890;6.040;2023-05-07T01:36:26;1999.90;;;999.90;;
14088;SDS011;7120;52.890;6.040;2023-05-07T01:38:54;1999.90;;;999.90;;
14088;SDS011;7120;52.890;6.040;2023-05-07T01:41:19;1999.90;;;999.90;;
14088;SDS011;7120;52.890;6.040;2023-05-07T01:43:46;1999.90;;;999.90;;
14088;SDS011;7120;52.890;6.040;2023-05-07T01:46:12;1999.90;;;999.90;;
14088;SDS011;7120;52.890;6.040;2023-05-07T01:48:38;1999.90;;;999.90;;
14088;SDS011;7120;52.890;6.040;2023-05-07T01:51:04;1999.90;;;999.90;;
14088;SDS011;7120;52.890;6.040;2023-05-07T01:53:35;1999.90;;;999.90;;
14088;SDS011;7120;52.890;6.040;2023-05-07T01:56:04;1999.90;;;999.90;;
14088;SDS011;7120;52.890;6.040;2023-05-07T01:58:30;1999.90;;;999.90;;
14088;SDS011;7120;52.890;6.040;2023-05-07T02:00:56;1999.90;;;999.90;;
14088;SDS011;7120;52.890;6.040;2023-05-07T02:03:21;1999.90;;;999.90;;
14088;SDS011;7120;52.890;6.040;2023-05-07T02:05:46;1999.90;;;999.90;;
14088;SDS011;7120;52.890;6.040;2023-05-07T02:08:12;1999.90;;;999.90;;
14088;SDS011;7120;52.890;6.040;2023-05-07T02:10:37;1999.90;;;999.90;;
14088;SDS011;7120;52.890;6.040;2023-05-07T02:13:02;1999.90;;;999.90;;
14088;SDS011;7120;52.890;6.040;2023-05-07T02:15:28;1999.90;;;999.90;;
14088;SDS011;7120;52.890;6.040;2023-05-07T02:18:00;1999.90;;;999.90;;
14088;SDS011;7120;52.890;6.040;2023-05-07T02:20:27;1999.90;;;999.90;;
14088;SDS011;7120;52.890;6.040;2023-05-07T02:22:53;1999.90;;;999.90;;
14088;SDS011;7120;52.890;6.040;2023-05-07T02:25:18;1999.90;;;999.90;;
14088;SDS011;7120;52.890;6.040;2023-05-07T02:27:44;1999.90;;;999.90;;
14088;SDS011;7120;52.890;6.040;2023-05-07T02:30:09;1999.90;;;999.90;;
14088;SDS011;7120;52.890;6.040;2023-05-07T02:32:35;1999.90;;;999.90;;
14088;SDS011;7120;52.890;6.040;2023-05-07T02:35:00;1999.90;;;999.90;;
14088;SDS011;7120;52.890;6.040;2023-05-07T02:37:26;1999.90;;;999.90;;
14088;SDS011;7120;52.890;6.040;2023-05-07T02:39:51;1999.90;;;999.90;;
14088;SDS011;7120;52.890;6.040;2023-05-07T02:42:16;1999.90;;;999.90;;
14088;SDS011;7120;52.890;6.040;2023-05-07T02:44:42;1999.90;;;999.90;;
14088;SDS011;7120;52.890;6.040;2023-05-07T02:47:07;1999.90;;;999.90;;
14088;SDS011;7120;52.890;6.040;2023-05-07T02:49:34;1999.90;;;999.90;;
14088;SDS011;7120;52.890;6.040;2023-05-07T02:51:59;1999.90;;;999.90;;
14088;SDS011;7120;52.890;6.040;2023-05-07T02:54:25;1999.90;;;999.90;;
14088;SDS011;7120;52.890;6.040;2023-05-07T02:56:50;1999.90;;;999.90;;
14088;SDS011;7120;52.890;6.040;2023-05-07T02:59:16;1999.90;;;999.90;;
14088;SDS011;7120;52.890;6.040;2023-05-07T03:01:41;1999.90;;;999.90;;
14088;SDS011;7120;52.890;6.040;2023-05-07T03:04:09;1999.90;;;999.90;;
14088;SDS011;7120;52.890;6.040;2023-05-07T03:06:35;1999.90;;;999.90;;
14088;SDS011;7120;52.890;6.040;2023-05-07T03:09:01;1999.90;;;999.90;;
14088;SDS011;7120;52.890;6.040;2023-05-07T03:11:27;1999.90;;;999.90;;
14088;SDS011;7120;52.890;6.040;2023-05-07T03:13:52;1999.90;;;999.90;;
14088;SDS011;7120;52.890;6.040;2023-05-07T03:16:17;1999.90;;;999.90;;
14088;SDS011;7120;52.890;6.040;2023-05-07T03:18:43;1999.90;;;999.90;;
14088;SDS011;7120;52.890;6.040;2023-05-07T03:21:08;1999.90;;;999.90;;
14088;SDS011;7120;52.890;6.040;2023-05-07T03:23:34;1999.90;;;999.90;;
14088;SDS011;7120;52.890;6.040;2023-05-07T03:25:59;1999.90;;;999.90;;
14088;SDS011;7120;52.890;6.040;2023-05-07T03:28:24;1999.90;;;999.90;;
14088;SDS011;7120;52.890;6.040;2023-05-07T03:30:50;1999.90;;;999.90;;
14088;SDS011;7120;52.890;6.040;2023-05-07T03:33:15;1999.90;;;999.90;;
14088;SDS011;7120;52.890;6.040;2023-05-07T03:35:41;1999.90;;;999.90;;
14088;SDS011;7120;52.890;6.040;2023-05-07T03:38:06;1999.90;;;999.90;;
14088;SDS011;7120;52.890;6.040;2023-05-07T03:40:32;1999.90;;;999.90;;
14088;SDS011;7120;52.890;6.040;2023-05-07T03:42:57;1999.90;;;999.90;;
14088;SDS011;7120;52.890;6.040;2023-05-07T03:45:24;1999.90;;;999.90;;
14088;SDS011;7120;52.890;6.040;2023-05-07T03:47:49;1999.90;;;999.90;;
14088;SDS011;7120;52.890;6.040;2023-05-07T03:50:15;1999.90;;;999.90;;
14088;SDS011;7120;52.890;6.040;2023-05-07T03:52:40;1999.90;;;999.90;;
14088;SDS011;7120;52.890;6.040;2023-05-07T03:55:05;1999.90;;;999.90;;
14088;SDS011;7120;52.890;6.040;2023-05-07T03:57:32;1999.90;;;999.90;;
14088;SDS011;7120;52.890;6.040;2023-05-07T03:59:57;1999.90;;;999.90;;
14088;SDS011;7120;52.890;6.040;2023-05-07T04:02:23;1999.90;;;999.90;;
14088;SDS011;7120;52.890;6.040;2023-05-07T04:04:48;1999.90;;;908.90;;
14088;SDS011;7120;52.890;6.040;2023-05-07T04:07:14;1999.90;;;999.90;;
14088;SDS011;7120;52.890;6.040;2023-05-07T04:09:40;1999.90;;;999.90;;
14088;SDS011;7120;52.890;6.040;2023-05-07T04:12:06;1999.90;;;999.90;;
14088;SDS011;7120;52.890;6.040;2023-05-07T04:14:31;1999.90;;;999.90;;
14088;SDS011;7120;52.890;6.040;2023-05-07T04:16:57;1999.90;;;999.90;;
14088;SDS011;7120;52.890;6.040;2023-05-07T04:19:24;1999.90;;;999.90;;
14088;SDS011;7120;52.890;6.040;2023-05-07T04:21:49;1999.90;;;999.90;;
14088;SDS011;7120;52.890;6.040;2023-05-07T04:24:15;1999.90;;;999.90;;
14088;SDS011;7120;52.890;6.040;2023-05-07T04:26:40;1999.90;;;999.90;;
14088;SDS011;7120;52.890;6.040;2023-05-07T04:29:06;1999.90;;;999.90;;
14088;SDS011;7120;52.890;6.040;2023-05-07T04:31:31;1999.90;;;833.30;;
14088;SDS011;7120;52.890;6.040;2023-05-07T04:33:57;1999.90;;;999.90;;
14088;SDS011;7120;52.890;6.040;2023-05-07T04:36:22;1999.90;;;999.90;;
14088;SDS011;7120;52.890;6.040;2023-05-07T04:38:47;1999.90;;;999.90;;
14088;SDS011;7120;52.890;6.040;2023-05-07T04:41:13;1999.90;;;999.90;;
14088;SDS011;7120;52.890;6.040;2023-05-07T04:43:38;1999.90;;;999.90;;
14088;SDS011;7120;52.890;6.040;2023-05-07T04:46:05;1999.90;;;999.90;;
14088;SDS011;7120;52.890;6.040;2023-05-07T04:48:30;1999.90;;;836.53;;
14088;SDS011;7120;52.890;6.040;2023-05-07T04:50:55;1999.90;;;849.50;;
14088;SDS011;7120;52.890;6.040;2023-05-07T04:53:21;1999.90;;;999.90;;
14088;SDS011;7120;52.890;6.040;2023-05-07T04:55:46;1999.90;;;923.27;;
14088;SDS011;7120;52.890;6.040;2023-05-07T04:58:12;1999.90;;;999.90;;
14088;SDS011;7120;52.890;6.040;2023-05-07T05:00:38;1999.90;;;964.70;;
14088;SDS011;7120;52.890;6.040;2023-05-07T05:03:04;1999.90;;;910.43;;
14088;SDS011;7120;52.890;6.040;2023-05-07T05:05:31;1999.90;;;971.13;;
14088;SDS011;7120;52.890;6.040;2023-05-07T05:07:56;1999.90;;;999.90;;
14088;SDS011;7120;52.890;6.040;2023-05-07T05:10:22;1999.90;;;989.47;;
14088;SDS011;7120;52.890;6.040;2023-05-07T05:12:47;1999.90;;;942.73;;
14088;SDS011;7120;52.890;6.040;2023-05-07T05:15:13;1999.90;;;976.60;;
14088;SDS011;7120;52.890;6.040;2023-05-07T05:17:38;1999.90;;;999.90;;
14088;SDS011;7120;52.890;6.040;2023-05-07T05:20:04;1999.90;;;999.90;;
14088;SDS011;7120;52.890;6.040;2023-05-07T05:22:31;1999.90;;;999.90;;
14088;SDS011;7120;52.890;6.040;2023-05-07T05:24:56;1999.90;;;999.90;;
14088;SDS011;7120;52.890;6.040;2023-05-07T05:27:22;1999.90;;;999.90;;
14088;SDS011;7120;52.890;6.040;2023-05-07T05:29:48;1999.90;;;999.90;;
14088;SDS011;7120;52.890;6.040;2023-05-07T05:32:13;1999.90;;;999.90;;
14088;SDS011;7120;52.890;6.040;2023-05-07T05:34:38;1999.90;;;999.90;;
14088;SDS011;7120;52.890;6.040;2023-05-07T05:37:04;1999.90;;;999.90;;
14088;SDS011;7120;52.890;6.040;2023-05-07T05:39:29;1999.90;;;999.90;;
14088;SDS011;7120;52.890;6.040;2023-05-07T05:41:55;1999.90;;;999.90;;
14088;SDS011;7120;52.890;6.040;2023-05-07T05:44:20;1999.90;;;999.90;;
14088;SDS011;7120;52.890;6.040;2023-05-07T05:46:45;1999.90;;;999.90;;
14088;SDS011;7120;52.890;6.040;2023-05-07T05:49:11;1999.90;;;999.90;;
14088;SDS011;7120;52.890;6.040;2023-05-07T05:51:36;1999.90;;;999.90;;
14088;SDS011;7120;52.890;6.040;2023-05-07T05:54:01;1999.90;;;999.90;;
14088;SDS011;7120;52.890;6.040;2023-05-07T05:56:27;1999.90;;;999.90;;
14088;SDS011;7120;52.890;6.040;2023-05-07T05:58:52;1999.90;;;999.90;;
14088;SDS011;7120;52.890;6.040;2023-05-07T06:01:18;1999.90;;;999.90;;
14088;SDS011;7120;52.890;6.040;2023-05-07T06:03:44;1999.90;;;999.90;;
14088;SDS011;7120;52.890;6.040;2023-05-07T06:06:09;1999.90;;;999.90;;
14088;SDS011;7120;52.890;6.040;2023-05-07T06:08:35;1999.90;;;999.90;;
14088;SDS011;7120;52.890;6.040;2023-05-07T06:11:01;1999.90;;;999.90;;
14088;SDS011;7120;52.890;6.040;2023-05-07T06:13:27;1999.90;;;999.90;;
14088;SDS011;7120;52.890;6.040;2023-05-07T06:15:53;1999.90;;;999.90;;
14088;SDS011;7120;52.890;6.040;2023-05-07T06:18:18;1999.90;;;999.90;;
14088;SDS011;7120;52.890;6.040;2023-05-07T06:20:43;1999.90;;;999.90;;
14088;SDS011;7120;52.890;6.040;2023-05-07T06:23:09;1999.90;;;999.90;;
14088;SDS011;7120;52.890;6.040;2023-05-07T06:25:34;1999.90;;;999.90;;
14088;SDS011;7120;52.890;6.040;2023-05-07T06:27:59;1999.90;;;999.90;;
14088;SDS011;7120;52.890;6.040;2023-05-07T06:30:25;1999.90;;;999.90;;
14088;SDS011;7120;52.890;6.040;2023-05-07T06:32:51;1999.90;;;964.20;;
14088;SDS011;7120;52.890;6.040;2023-05-07T06:35:17;1999.90;;;999.90;;
14088;SDS011;7120;52.890;6.040;2023-05-07T06:37:42;1968.43;;;873.27;;
14088;SDS011;7120;52.890;6.040;2023-05-07T06:40:08;1999.90;;;999.90;;
14088;SDS011;7120;52.890;6.040;2023-05-07T06:42:35;1045.10;;;723.87;;
14088;SDS011;7120;52.890;6.040;2023-05-07T06:45:01;1999.90;;;942.70;;
14088;SDS011;7120;52.890;6.040;2023-05-07T06:47:26;1999.90;;;908.83;;
14088;SDS011;7120;52.890;6.040;2023-05-07T06:49:51;1999.90;;;901.87;;
14088;SDS011;7120;52.890;6.040;2023-05-07T06:52:17;1999.90;;;984.23;;
14088;SDS011;7120;52.890;6.040;2023-05-07T06:54:42;1680.37;;;716.53;;
14088;SDS011;7120;52.890;6.040;2023-05-07T06:57:07;1713.87;;;833.13;;
14088;SDS011;7120;52.890;6.040;2023-05-07T06:59:33;1104.13;;;677.93;;
14088;SDS011;7120;52.890;6.040;2023-05-07T07:01:58;309.63;;;284.80;;
14088;SDS011;7120;52.890;6.040;2023-05-07T07:04:24;1305.30;;;642.27;;
14088;SDS011;7120;52.890;6.040;2023-05-07T07:06:51;505.33;;;456.67;;
14088;SDS011;7120;52.890;6.040;2023-05-07T07:09:18;1158.00;;;622.90;;
14088;SDS011;7120;52.890;6.040;2023-05-07T07:11:43;1217.97;;;646.07;;
14088;SDS011;7120;52.890;6.040;2023-05-07T07:14:08;356.87;;;326.83;;
14088;SDS011;7120;52.890;6.040;2023-05-07T07:16:34;1997.37;;;826.20;;
14088;SDS011;7120;52.890;6.040;2023-05-07T07:18:59;1054.73;;;643.33;;
14088;SDS011;7120;52.890;6.040;2023-05-07T07:21:25;140.30;;;130.93;;
14088;SDS011;7120;52.890;6.040;2023-05-07T07:23:50;40.67;;;37.27;;
14088;SDS011;7120;52.890;6.040;2023-05-07T07:26:16;111.23;;;103.70;;
14088;SDS011;7120;52.890;6.040;2023-05-07T07:28:43;480.93;;;431.47;;
14088;SDS011;7120;52.890;6.040;2023-05-07T07:31:08;218.43;;;201.83;;
14088;SDS011;7120;52.890;6.040;2023-05-07T07:33:34;42.53;;;39.23;;
14088;SDS011;7120;52.890;6.040;2023-05-07T07:35:59;26.20;;;23.77;;
14088;SDS011;7120;52.890;6.040;2023-05-07T07:38:25;26.43;;;23.93;;
14088;SDS011;7120;52.890;6.040;2023-05-07T07:40:50;44.47;;;40.97;;
14088;SDS011;7120;52.890;6.040;2023-05-07T07:43:16;24.43;;;22.10;;
14088;SDS011;7120;52.890;6.040;2023-05-07T07:45:41;40.03;;;37.00;;
14088;SDS011;7120;52.890;6.040;2023-05-07T07:48:06;24.20;;;21.83;;
14088;SDS011;7120;52.890;6.040;2023-05-07T07:50:32;23.43;;;21.17;;
14088;SDS011;7120;52.890;6.040;2023-05-07T07:52:57;22.97;;;20.77;;
14088;SDS011;7120;52.890;6.040;2023-05-07T07:55:22;25.40;;;22.73;;
14088;SDS011;7120;52.890;6.040;2023-05-07T07:57:51;24.00;;;21.73;;
14088;SDS011;7120;52.890;6.040;2023-05-07T08:00:16;24.53;;;22.20;;
14088;SDS011;7120;52.890;6.040;2023-05-07T08:02:42;23.33;;;21.13;;
14088;SDS011;7120;52.890;6.040;2023-05-07T08:05:07;24.87;;;22.30;;
14088;SDS011;7120;52.890;6.040;2023-05-07T08:07:33;23.83;;;21.63;;
14088;SDS011;7120;52.890;6.040;2023-05-07T08:09:58;24.00;;;21.70;;
14088;SDS011;7120;52.890;6.040;2023-05-07T08:12:23;24.40;;;22.00;;
14088;SDS011;7120;52.890;6.040;2023-05-07T08:14:49;25.80;;;23.37;;
14088;SDS011;7120;52.890;6.040;2023-05-07T08:17:15;26.47;;;22.50;;
14088;SDS011;7120;52.890;6.040;2023-05-07T08:19:41;24.20;;;21.90;;
14088;SDS011;7120;52.890;6.040;2023-05-07T08:22:06;23.80;;;21.50;;
14088;SDS011;7120;52.890;6.040;2023-05-07T08:24:32;23.10;;;20.90;;
14088;SDS011;7120;52.890;6.040;2023-05-07T08:26:57;44.97;;;36.93;;
14088;SDS011;7120;52.890;6.040;2023-05-07T08:29:23;23.57;;;21.37;;
14088;SDS011;7120;52.890;6.040;2023-05-07T08:31:48;24.63;;;22.33;;
14088;SDS011;7120;52.890;6.040;2023-05-07T08:34:13;44.57;;;41.57;;
14088;SDS011;7120;52.890;6.040;2023-05-07T08:36:39;24.67;;;22.13;;
14088;SDS011;7120;52.890;6.040;2023-05-07T08:39:06;25.57;;;23.33;;
14088;SDS011;7120;52.890;6.040;2023-05-07T08:41:32;29.03;;;26.57;;
14088;SDS011;7120;52.890;6.040;2023-05-07T08:43:58;52.90;;;49.63;;
14088;SDS011;7120;52.890;6.040;2023-05-07T08:46:27;23.40;;;21.13;;
14088;SDS011;7120;52.890;6.040;2023-05-07T08:48:56;24.73;;;22.37;;
14088;SDS011;7120;52.890;6.040;2023-05-07T08:51:22;25.43;;;23.00;;
14088;SDS011;7120;52.890;6.040;2023-05-07T08:53:48;27.57;;;25.23;;
14088;SDS011;7120;52.890;6.040;2023-05-07T08:56:15;25.83;;;23.60;;
14088;SDS011;7120;52.890;6.040;2023-05-07T08:58:42;23.00;;;20.90;;
14088;SDS011;7120;52.890;6.040;2023-05-07T09:01:09;23.43;;;21.13;;
14088;SDS011;7120;52.890;6.040;2023-05-07T09:03:40;22.20;;;20.20;;
14088;SDS011;7120;52.890;6.040;2023-05-07T09:06:09;23.07;;;20.97;;
14088;SDS011;7120;52.890;6.040;2023-05-07T09:08:35;23.27;;;21.13;;
14088;SDS011;7120;52.890;6.040;2023-05-07T09:11:01;24.17;;;21.87;;
14088;SDS011;7120;52.890;6.040;2023-05-07T09:13:27;24.67;;;22.17;;
14088;SDS011;7120;52.890;6.040;2023-05-07T09:15:53;27.00;;;24.53;;
14088;SDS011;7120;52.890;6.040;2023-05-07T09:18:18;25.50;;;22.97;;
14088;SDS011;7120;52.890;6.040;2023-05-07T09:20:44;23.60;;;21.47;;
14088;SDS011;7120;52.890;6.040;2023-05-07T09:23:09;23.60;;;21.40;;
14088;SDS011;7120;52.890;6.040;2023-05-07T09:25:35;128.77;;;121.73;;
14088;SDS011;7120;52.890;6.040;2023-05-07T09:28:02;23.30;;;21.20;;
14088;SDS011;7120;52.890;6.040;2023-05-07T09:30:29;23.13;;;20.80;;
14088;SDS011;7120;52.890;6.040;2023-05-07T09:32:58;25.17;;;22.87;;
14088;SDS011;7120;52.890;6.040;2023-05-07T09:35:24;23.40;;;21.30;;
14088;SDS011;7120;52.890;6.040;2023-05-07T09:37:56;24.43;;;22.23;;
14088;SDS011;7120;52.890;6.040;2023-05-07T09:40:23;23.63;;;21.52;;
14088;SDS011;7120;52.890;6.040;2023-05-07T09:42:50;25.40;;;23.00;;
14088;SDS011;7120;52.890;6.040;2023-05-07T09:45:16;23.47;;;21.27;;
14088;SDS011;7120;52.890;6.040;2023-05-07T09:47:47;23.97;;;21.87;;
14088;SDS011;7120;52.890;6.040;2023-05-07T09:50:14;26.10;;;23.63;;
14088;SDS011;7120;52.890;6.040;2023-05-07T09:52:41;24.37;;;22.17;;
14088;SDS011;7120;52.890;6.040;2023-05-07T09:55:09;24.87;;;22.47;;
14088;SDS011;7120;52.890;6.040;2023-05-07T09:57:35;25.23;;;22.73;;
14088;SDS011;7120;52.890;6.040;2023-05-07T10:00:03;26.87;;;24.27;;
14088;SDS011;7120;52.890;6.040;2023-05-07T10:02:33;34.00;;;30.37;;
14088;SDS011;7120;52.890;6.040;2023-05-07T10:05:01;33.47;;;30.93;;
14088;SDS011;7120;52.890;6.040;2023-05-07T10:07:27;25.97;;;23.53;;
14088;SDS011;7120;52.890;6.040;2023-05-07T10:09:53;49.13;;;46.00;;
14088;SDS011;7120;52.890;6.040;2023-05-07T10:12:19;23.70;;;21.40;;
14088;SDS011;7120;52.890;6.040;2023-05-07T10:14:45;24.37;;;22.17;;
14088;SDS011;7120;52.890;6.040;2023-05-07T10:17:11;23.80;;;21.60;;
14088;SDS011;7120;52.890;6.040;2023-05-07T10:19:36;31.97;;;29.17;;
14088;SDS011;7120;52.890;6.040;2023-05-07T10:22:04;27.33;;;24.83;;
14088;SDS011;7120;52.890;6.040;2023-05-07T10:24:33;24.37;;;22.20;;
14088;SDS011;7120;52.890;6.040;2023-05-07T10:27:04;23.95;;;21.75;;
14088;SDS011;7120;52.890;6.040;2023-05-07T10:32:33;27.40;;;24.67;;
14088;SDS011;7120;52.890;6.040;2023-05-07T10:35:04;22.88;;;20.67;;
14088;SDS011;7120;52.890;6.040;2023-05-07T10:37:39;25.50;;;23.13;;
14088;SDS011;7120;52.890;6.040;2023-05-07T10:40:06;24.70;;;22.50;;
14088;SDS011;7120;52.890;6.040;2023-05-07T10:42:32;22.73;;;20.73;;
14088;SDS011;7120;52.890;6.040;2023-05-07T10:44:57;23.33;;;21.17;;
14088;SDS011;7120;52.890;6.040;2023-05-07T10:47:23;24.02;;;21.63;;
14088;SDS011;7120;52.890;6.040;2023-05-07T10:52:17;21.75;;;19.80;;
14088;SDS011;7120;52.890;6.040;2023-05-07T10:55:18;21.90;;;20.00;;
14088;SDS011;7120;52.890;6.040;2023-05-07T10:57:39;22.05;;;20.15;;
14088;SDS011;7120;52.890;6.040;2023-05-07T11:03:07;23.63;;;21.42;;
14088;SDS011;7120;52.890;6.040;2023-05-07T11:05:32;23.45;;;21.25;;
14088;SDS011;7120;52.890;6.040;2023-05-07T11:08:02;24.63;;;22.42;;
14088;SDS011;7120;52.890;6.040;2023-05-07T11:10:47;24.38;;;22.00;;
14088;SDS011;7120;52.890;6.040;2023-05-07T11:13:13;23.80;;;21.60;;
14088;SDS011;7120;52.890;6.040;2023-05-07T11:15:43;24.30;;;22.20;;
14088;SDS011;7120;52.890;6.040;2023-05-07T11:18:11;23.17;;;21.17;;
14088;SDS011;7120;52.890;6.040;2023-05-07T11:20:47;24.30;;;22.10;;
14088;SDS011;7120;52.890;6.040;2023-05-07T11:26:00;26.37;;;24.13;;
14088;SDS011;7120;52.890;6.040;2023-05-07T11:28:29;26.47;;;24.07;;
14088;SDS011;7120;52.890;6.040;2023-05-07T11:30:55;28.40;;;25.90;;
14088;SDS011;7120;52.890;6.040;2023-05-07T11:33:21;39.93;;;37.07;;
14088;SDS011;7120;52.890;6.040;2023-05-07T11:35:47;60.53;;;57.00;;
14088;SDS011;7120;52.890;6.040;2023-05-07T11:38:13;24.03;;;21.80;;
14088;SDS011;7120;52.890;6.040;2023-05-07T11:40:49;24.00;;;21.83;;
14088;SDS011;7120;52.890;6.040;2023-05-07T11:43:19;25.10;;;22.60;;
14088;SDS011;7120;52.890;6.040;2023-05-07T11:45:45;28.47;;;25.90;;
14088;SDS011;7120;52.890;6.040;2023-05-07T11:48:12;39.10;;;36.17;;
14088;SDS011;7120;52.890;6.040;2023-05-07T11:50:49;25.97;;;23.57;;
14088;SDS011;7120;52.890;6.040;2023-05-07T11:53:19;28.40;;;25.90;;
14088;SDS011;7120;52.890;6.040;2023-05-07T11:55:45;27.77;;;25.27;;
14088;SDS011;7120;52.890;6.040;2023-05-07T11:58:12;29.23;;;26.70;;
14088;SDS011;7120;52.890;6.040;2023-05-07T12:00:51;59.70;;;55.97;;
14088;SDS011;7120;52.890;6.040;2023-05-07T12:03:18;24.87;;;22.63;;
14088;SDS011;7120;52.890;6.040;2023-05-07T12:05:46;114.40;;;108.53;;
14088;SDS011;7120;52.890;6.040;2023-05-07T12:08:14;25.80;;;23.30;;
14088;SDS011;7120;52.890;6.040;2023-05-07T12:10:41;769.97;;;698.80;;
14088;SDS011;7120;52.890;6.040;2023-05-07T12:13:27;38.30;;;35.50;;
14088;SDS011;7120;52.890;6.040;2023-05-07T12:15:53;24.73;;;22.40;;
14088;SDS011;7120;52.890;6.040;2023-05-07T12:18:19;23.90;;;21.93;;
14088;SDS011;7120;52.890;6.040;2023-05-07T12:20:46;24.87;;;22.77;;
14088;SDS011;7120;52.890;6.040;2023-05-07T12:23:12;24.57;;;22.37;;
14088;SDS011;7120;52.890;6.040;2023-05-07T12:25:39;25.20;;;23.20;;
14088;SDS011;7120;52.890;6.040;2023-05-07T12:28:07;22.70;;;20.60;;
14088;SDS011;7120;52.890;6.040;2023-05-07T12:30:39;21.97;;;19.97;;
14088;SDS011;7120;52.890;6.040;2023-05-07T12:33:05;21.63;;;19.70;;
14088;SDS011;7120;52.890;6.040;2023-05-07T12:35:31;21.53;;;19.63;;
14088;SDS011;7120;52.890;6.040;2023-05-07T12:38:00;21.33;;;19.23;;
14088;SDS011;7120;52.890;6.040;2023-05-07T12:40:37;20.83;;;18.97;;
14088;SDS011;7120;52.890;6.040;2023-05-07T12:43:07;20.70;;;18.83;;
14088;SDS011;7120;52.890;6.040;2023-05-07T12:45:36;20.45;;;18.52;;
14088;SDS011;7120;52.890;6.040;2023-05-07T12:48:04;21.27;;;19.27;;
14088;SDS011;7120;52.890;6.040;2023-05-07T12:50:32;21.40;;;19.33;;
14088;SDS011;7120;52.890;6.040;2023-05-07T12:52:58;26.43;;;24.23;;
14088;SDS011;7120;52.890;6.040;2023-05-07T12:55:24;21.17;;;19.37;;
14088;SDS011;7120;52.890;6.040;2023-05-07T12:57:50;28.07;;;25.97;;
14088;SDS011;7120;52.890;6.040;2023-05-07T13:00:16;50.43;;;47.53;;
14088;SDS011;7120;52.890;6.040;2023-05-07T13:02:43;189.30;;;180.30;;
14088;SDS011;7120;52.890;6.040;2023-05-07T13:05:10;26.30;;;24.30;;
14088;SDS011;7120;52.890;6.040;2023-05-07T13:07:35;88.27;;;84.00;;
14088;SDS011;7120;52.890;6.040;2023-05-07T13:10:02;28.53;;;26.43;;
14088;SDS011;7120;52.890;6.040;2023-05-07T13:12:28;22.93;;;20.73;;
14088;SDS011;7120;52.890;6.040;2023-05-07T13:14:53;57.10;;;54.03;;
14088;SDS011;7120;52.890;6.040;2023-05-07T13:17:18;19.20;;;17.63;;
14088;SDS011;7120;52.890;6.040;2023-05-07T13:19:44;20.43;;;18.53;;
14088;SDS011;7120;52.890;6.040;2023-05-07T13:22:09;25.30;;;23.33;;
14088;SDS011;7120;52.890;6.040;2023-05-07T13:24:35;19.03;;;17.40;;
14088;SDS011;7120;52.890;6.040;2023-05-07T13:27:01;22.60;;;20.80;;
14088;SDS011;7120;52.890;6.040;2023-05-07T13:29:26;17.33;;;15.83;;
14088;SDS011;7120;52.890;6.040;2023-05-07T13:31:58;22.30;;;20.70;;
14088;SDS011;7120;52.890;6.040;2023-05-07T13:34:24;16.77;;;15.27;;
14088;SDS011;7120;52.890;6.040;2023-05-07T13:36:50;16.30;;;15.00;;
14088;SDS011;7120;52.890;6.040;2023-05-07T13:39:15;17.30;;;15.70;;
14088;SDS011;7120;52.890;6.040;2023-05-07T13:41:41;17.40;;;15.90;;
14088;SDS011;7120;52.890;6.040;2023-05-07T13:44:06;17.10;;;15.63;;
14088;SDS011;7120;52.890;6.040;2023-05-07T13:46:32;17.63;;;16.13;;
14088;SDS011;7120;52.890;6.040;2023-05-07T13:48:57;16.93;;;15.53;;
14088;SDS011;7120;52.890;6.040;2023-05-07T13:51:23;16.43;;;14.83;;
14088;SDS011;7120;52.890;6.040;2023-05-07T13:53:48;15.53;;;14.23;;
14088;SDS011;7120;52.890;6.040;2023-05-07T13:56:14;15.40;;;14.05;;
14088;SDS011;7120;52.890;6.040;2023-05-07T13:58:39;15.30;;;14.00;;
14088;SDS011;7120;52.890;6.040;2023-05-07T14:01:05;15.85;;;14.55;;
14088;SDS011;7120;52.890;6.040;2023-05-07T14:03:30;14.80;;;13.50;;
14088;SDS011;7120;52.890;6.040;2023-05-07T14:05:57;15.45;;;14.15;;
14088;SDS011;7120;52.890;6.040;2023-05-07T14:08:25;16.02;;;14.57;;
14088;SDS011;7120;52.890;6.040;2023-05-07T14:10:51;16.33;;;14.93;;
14088;SDS011;7120;52.890;6.040;2023-05-07T14:13:16;16.08;;;14.68;;
14088;SDS011;7120;52.890;6.040;2023-05-07T14:15:42;16.25;;;14.88;;
14088;SDS011;7120;52.890;6.040;2023-05-07T14:18:11;17.27;;;15.73;;
14088;SDS011;7120;52.890;6.040;2023-05-07T14:20:37;16.25;;;14.85;;